createdAt,value
2022-11-13T00:03:28.875Z,118.30
2022-11-13T00:08:25.325Z,117.63
2022-11-13T00:13:26.142Z,118.25
2022-11-13T00:18:25.684Z,116.13
2022-11-13T00:23:22.189Z,114.75
2022-11-13T00:28:18.397Z,115.70
2022-11-13T00:33:26.403Z,113.72
2022-11-13T00:38:31.138Z,120.38
2022-11-13T00:43:27.534Z,116.63
2022-11-13T00:48:23.766Z,114.38
2022-11-13T00:53:19.996Z,113.68
2022-11-13T00:58:16.329Z,112.50
2022-11-13T01:03:13.491Z,115.50
2022-11-13T01:08:10.033Z,116.78
2022-11-13T01:13:06.270Z,114.20
2022-11-13T01:18:02.492Z,113.25
2022-11-13T01:22:58.870Z,108.78
2022-11-13T01:27:55.095Z,112.70
2022-11-13T01:32:51.319Z,115.35
2022-11-13T01:37:47.529Z,114.63
2022-11-13T01:42:43.781Z,115.13
2022-11-13T01:47:39.959Z,115.63
2022-11-13T01:52:38.659Z,115.78
2022-11-13T01:57:35.316Z,112.35
2022-11-13T02:02:31.557Z,118.90
2022-11-13T02:07:28.234Z,113.13
2022-11-13T02:12:31.577Z,111.13
2022-11-13T02:17:54.014Z,113.07
2022-11-13T02:23:08.843Z,114.93
2022-11-13T02:28:05.024Z,108.60
2022-11-13T02:33:01.568Z,117.78
2022-11-13T02:37:59.445Z,112.70
2022-11-13T02:42:55.665Z,119.68
2022-11-13T02:47:51.868Z,119.65
2022-11-13T02:52:48.176Z,120.43
2022-11-13T02:57:44.622Z,120.63
2022-11-13T03:02:40.992Z,118.68
2022-11-13T03:07:37.176Z,119.70
2022-11-13T03:12:33.801Z,118.70
2022-11-13T03:17:33.222Z,121.10
2022-11-13T03:22:29.412Z,115.60
2022-11-13T03:27:25.650Z,118.07
2022-11-13T03:32:21.862Z,117.13
2022-11-13T03:37:19.128Z,116.32
2022-11-13T03:42:15.378Z,112.88
2022-11-13T03:47:11.588Z,113.70
2022-11-13T03:52:07.817Z,114.68
2022-11-13T03:57:04.142Z,116.63
2022-11-13T04:02:00.369Z,118.57
2022-11-13T04:06:56.606Z,115.45
2022-11-13T04:11:52.826Z,117.75
2022-11-13T04:16:49.034Z,119.18
2022-11-13T04:21:45.227Z,121.95
2022-11-13T04:26:41.435Z,118.05
2022-11-13T04:31:37.652Z,124.13
2022-11-13T04:36:33.872Z,116.90
2022-11-13T04:41:52.613Z,124.63
2022-11-13T04:46:51.471Z,125.00
2022-11-13T04:51:47.734Z,119.07
2022-11-13T04:56:43.942Z,123.07
2022-11-13T05:01:40.181Z,125.53
2022-11-13T05:06:36.485Z,124.85
2022-11-13T05:11:32.753Z,124.18
2022-11-13T05:16:29.024Z,125.68
2022-11-13T05:21:25.210Z,122.35
2022-11-13T05:26:21.449Z,126.03
2022-11-13T05:31:17.936Z,127.22
2022-11-13T05:36:15.285Z,122.50
2022-11-13T05:41:18.644Z,124.88
2022-11-13T05:46:16.605Z,123.32
2022-11-13T05:51:17.498Z,125.53
2022-11-13T05:56:16.383Z,124.03
2022-11-13T06:01:14.187Z,120.32
2022-11-13T06:06:11.490Z,126.72
2022-11-13T06:11:09.218Z,126.57
2022-11-13T06:16:06.742Z,126.10
2022-11-13T06:21:08.897Z,125.90
2022-11-13T06:26:07.114Z,122.45
2022-11-13T06:31:04.512Z,129.07
2022-11-13T06:36:04.769Z,128.13
2022-11-13T06:41:01.373Z,127.90
2022-11-13T06:45:57.981Z,132.10
2022-11-13T06:50:54.239Z,131.80
2022-11-13T06:55:50.488Z,132.35
2022-11-13T07:00:47.584Z,134.40
2022-11-13T07:05:43.933Z,137.55
2022-11-13T07:10:40.310Z,136.77
2022-11-13T07:15:37.522Z,133.27
2022-11-13T07:20:34.057Z,133.52
2022-11-13T07:25:30.667Z,133.98
2022-11-13T07:30:26.897Z,135.52
2022-11-13T07:35:23.132Z,134.38
2022-11-13T07:40:19.338Z,138.35
2022-11-13T07:45:15.643Z,138.93
2022-11-13T07:50:11.845Z,137.45
2022-11-13T07:55:08.178Z,137.65
2022-11-13T08:00:04.734Z,137.75
2022-11-13T08:05:00.927Z,141.27
2022-11-13T08:09:57.115Z,140.38
2022-11-13T08:14:53.317Z,140.48
2022-11-13T08:19:49.502Z,143.82
2022-11-13T08:24:45.704Z,144.75
2022-11-13T08:29:41.912Z,148.60
2022-11-13T08:34:38.172Z,145.15
2022-11-13T08:39:37.383Z,149.93
2022-11-13T08:44:33.569Z,152.38
2022-11-13T08:49:29.796Z,139.82
2022-11-13T08:54:26.002Z,145.27
2022-11-13T08:59:23.494Z,139.57
2022-11-13T09:04:19.723Z,139.13
2022-11-13T09:09:15.963Z,137.88
2022-11-13T09:14:12.487Z,139.52
2022-11-13T09:19:08.708Z,134.20
2022-11-13T09:24:06.386Z,134.70
2022-11-13T09:29:02.599Z,135.10
2022-11-13T09:33:58.812Z,129.05
2022-11-13T09:38:55.038Z,132.98
2022-11-13T09:43:56.746Z,130.07
2022-11-13T09:48:58.859Z,127.22
2022-11-13T09:53:55.228Z,132.80
2022-11-13T09:58:51.391Z,131.45
2022-11-13T10:04:05.510Z,127.25
2022-11-13T10:09:10.113Z,123.70
2022-11-13T10:14:18.662Z,120.70
2022-11-13T10:19:17.940Z,123.38
2022-11-13T10:24:22.110Z,119.82
2022-11-13T10:29:19.475Z,115.47
2022-11-13T10:34:16.847Z,111.60
2022-11-13T10:39:13.110Z,102.75
2022-11-13T10:44:21.751Z,109.55
2022-11-13T10:49:28.761Z,101.70
2022-11-13T10:54:26.901Z,108.15
2022-11-13T10:59:23.141Z,110.28
2022-11-13T11:04:19.318Z,107.55
2022-11-13T11:09:30.846Z,108.55
2022-11-13T11:14:29.656Z,108.28
2022-11-13T11:19:27.942Z,106.97
2022-11-13T11:24:26.498Z,109.75
2022-11-13T11:29:28.117Z,112.50
2022-11-13T11:34:33.463Z,114.18
2022-11-13T11:39:40.692Z,111.72
2022-11-13T11:44:42.549Z,120.95
2022-11-13T11:49:38.934Z,115.43
2022-11-13T11:54:42.134Z,114.60
2022-11-13T11:59:41.068Z,113.03
2022-11-13T12:04:55.856Z,112.10
2022-11-13T12:10:06.718Z,108.55
2022-11-13T12:15:06.673Z,106.72
2022-11-13T12:20:21.752Z,104.90
2022-11-13T12:25:41.511Z,99.63
2022-11-13T12:30:37.701Z,92.18
2022-11-13T12:35:34.104Z,92.43
2022-11-13T12:40:42.869Z,89.72
2022-11-13T12:45:46.414Z,90.28
2022-11-13T12:50:42.669Z,93.00
2022-11-13T12:55:39.863Z,88.45
2022-11-13T13:00:37.637Z,90.35
2022-11-13T13:05:49.178Z,88.07
2022-11-13T13:10:45.349Z,78.68
2022-11-13T13:16:04.842Z,80.75
2022-11-13T13:21:01.335Z,81.80
2022-11-13T13:26:03.311Z,79.93
2022-11-13T13:31:02.445Z,79.77
2022-11-13T13:36:11.611Z,72.38
2022-11-13T13:41:23.183Z,75.05
2022-11-13T13:46:23.146Z,74.10
2022-11-13T13:51:26.328Z,80.38
2022-11-13T13:56:23.149Z,83.43
2022-11-13T14:01:45.789Z,82.25
2022-11-13T14:06:49.833Z,75.07
2022-11-13T14:11:47.742Z,79.47
2022-11-13T14:16:48.040Z,77.07
2022-11-13T14:21:48.889Z,84.95
2022-11-13T14:26:45.162Z,85.68
2022-11-13T14:31:41.412Z,85.10
2022-11-13T14:36:38.188Z,85.45
2022-11-13T14:41:37.131Z,87.45
2022-11-13T14:46:37.440Z,94.25
2022-11-13T14:51:34.083Z,87.00
2022-11-13T14:56:34.643Z,91.72
2022-11-13T15:01:32.334Z,94.78
2022-11-13T15:06:34.895Z,90.90
2022-11-13T15:11:31.083Z,92.35
2022-11-13T15:16:28.842Z,96.03
2022-11-13T15:21:25.078Z,92.32
2022-11-13T15:26:21.259Z,93.35
2022-11-13T15:31:20.064Z,98.30
2022-11-13T15:36:16.853Z,94.07
2022-11-13T15:41:18.082Z,99.97
2022-11-13T15:46:16.066Z,98.90
2022-11-13T15:51:23.825Z,98.07
2022-11-13T15:56:20.133Z,95.20
2022-11-13T16:01:16.999Z,95.22
2022-11-13T16:06:14.457Z,94.28
2022-11-13T16:11:18.254Z,95.63
2022-11-13T16:16:19.839Z,96.32
2022-11-13T16:21:16.789Z,94.03
2022-11-13T16:26:14.772Z,97.70
2022-11-13T16:31:11.069Z,100.38
2022-11-13T16:36:14.514Z,94.45
2022-11-13T16:41:11.238Z,99.88
2022-11-13T16:46:20.401Z,97.45
2022-11-13T16:51:16.695Z,97.43
2022-11-13T16:56:12.954Z,105.97
2022-11-13T17:01:13.873Z,102.47
2022-11-13T17:06:25.007Z,109.57
2022-11-13T17:11:21.689Z,105.15
2022-11-13T17:16:18.370Z,106.10
2022-11-13T17:21:15.107Z,105.18
2022-11-13T17:26:11.658Z,104.03
2022-11-13T17:31:08.498Z,107.82
2022-11-13T17:36:05.064Z,110.28
2022-11-13T17:41:05.775Z,106.78
2022-11-13T17:46:02.387Z,104.70
2022-11-13T17:50:59.504Z,107.03
2022-11-13T17:55:56.859Z,106.70
2022-11-13T18:00:53.177Z,110.72
2022-11-13T18:05:49.439Z,111.45
2022-11-13T18:10:45.651Z,115.68
2022-11-13T18:15:42.086Z,112.10
2022-11-13T18:20:39.487Z,117.88
2022-11-13T18:25:39.430Z,114.70
2022-11-13T18:30:37.896Z,113.80
2022-11-13T18:35:34.155Z,112.90
2022-11-13T18:40:30.420Z,112.00
2022-11-13T18:45:26.618Z,113.40
2022-11-13T18:50:23.829Z,118.57
2022-11-13T18:55:20.046Z,114.28
2022-11-13T19:00:16.498Z,112.85
2022-11-13T19:05:12.701Z,104.70
2022-11-13T19:10:08.924Z,102.38
2022-11-13T19:15:07.258Z,97.70
2022-11-13T19:20:03.688Z,94.93
2022-11-13T19:25:00.318Z,87.70
2022-11-13T19:29:56.521Z,84.85
2022-11-13T19:34:52.735Z,87.50
2022-11-13T19:39:49.126Z,83.82
2022-11-13T19:44:45.350Z,90.15
2022-11-13T19:49:41.603Z,87.10
2022-11-13T19:54:38.202Z,84.18
2022-11-13T19:59:34.601Z,85.10
2022-11-13T20:04:30.918Z,79.68
2022-11-13T20:09:28.385Z,85.35
2022-11-13T20:14:24.563Z,72.68
2022-11-13T20:19:20.808Z,69.85
2022-11-13T20:24:17.106Z,64.43
2022-11-13T20:29:13.373Z,65.70
2022-11-13T20:34:10.124Z,57.17
2022-11-13T20:39:09.341Z,62.08
2022-11-13T20:44:06.000Z,59.25
2022-11-13T20:49:02.285Z,60.85
2022-11-13T20:53:58.694Z,65.40
2022-11-13T20:58:54.946Z,65.75
2022-11-13T21:03:51.757Z,63.45
2022-11-13T21:08:48.315Z,63.30
2022-11-13T21:13:44.669Z,61.97
2022-11-13T21:18:41.354Z,62.10
2022-11-13T21:23:37.906Z,61.88
2022-11-13T21:28:34.892Z,66.57
2022-11-13T21:33:35.580Z,63.75
2022-11-13T21:38:31.963Z,61.70
2022-11-13T21:43:28.226Z,66.43
2022-11-13T21:48:26.210Z,68.00
2022-11-13T21:53:24.331Z,62.45
2022-11-13T21:58:28.400Z,63.88
2022-11-13T22:03:25.339Z,68.85
2022-11-13T22:08:21.574Z,67.50
2022-11-13T22:13:17.770Z,67.43
2022-11-13T22:18:15.238Z,71.68
2022-11-13T22:23:11.431Z,72.15
2022-11-13T22:28:07.626Z,70.15
2022-11-13T22:33:04.608Z,65.72
2022-11-13T22:38:01.727Z,70.63
2022-11-13T22:42:57.927Z,71.72
2022-11-13T22:47:54.146Z,69.65
2022-11-13T22:52:51.618Z,66.18
2022-11-13T22:57:47.889Z,66.18
2022-11-13T23:02:47.294Z,65.70
2022-11-13T23:07:43.886Z,63.92
2022-11-13T23:12:40.079Z,65.78
2022-11-13T23:17:36.269Z,62.90
2022-11-13T23:22:32.465Z,62.42
2022-11-13T23:27:28.734Z,65.07
2022-11-13T23:32:24.919Z,61.83
2022-11-13T23:37:21.210Z,58.22
2022-11-13T23:42:33.010Z,62.80
2022-11-13T23:47:33.676Z,61.20
2022-11-13T23:52:29.987Z,59.88
2022-11-13T23:57:26.193Z,62.15
